Welcome to Northern Hawkes Bay. New Zealand.
PWS Header
      nz Flag



Hit Counter


W3C Valid W3C Valid logo


    Wairoa

Select any of the Stations below to visit their websites.










Historic Data from Weather Underground
Select the location of interest below. Wairoa is the default. Please have patience, this Data is slow to load in.
Northern Hawkes Bay Historical Data
Daily Summary for June 11, 2017 Units:  English    Metric   Both
« Previous Day
Next Day »
Daily Weekly Monthly Yearly Custom
  High: Low: Average:
Temperature: 61.2 °F 41.7 °F 50.7 °F
Dew Point: 45 °F 41.5 °F 43.5 °F
Humidity: 99% 50% 79%
Wind Speed: 9.2mph 0mph 3.5mph
Wind Gust: 12.1mph - -
Wind- - WSW
Pressure: 30.2 in 30 in -
Precipitation: 0 in    
Historical Graphs
 
 
Tabular Data for June 11, 2017
Time Temperature Dew Point Pressure Wind Wind Speed Wind Gust Humidity Rainfall Rate (Hourly) solar
00:05 61.2 °F 42.4 °F 30 in NW 3.8 mph 6 mph 50% 0 in 148 W/m2
00:35 60.1 °F 43.3 °F 30 in North 3.8 mph 6 mph 54% 0 in 92 W/m2
01:05 59 °F 42.8 °F 30 in North 5.4 mph 6.9 mph 55% 0 in 77 W/m2
01:35 57.7 °F 43.2 °F 30 in NNW 4.5 mph 7.6 mph 58% 0 in 73 W/m2
02:05 57.4 °F 43.2 °F 30 in North 5.4 mph 6.9 mph 59% 0 in 37 W/m2
02:35 55.6 °F 44.1 °F 30 in North 5.4 mph 6.9 mph 65% 0 in 11 W/m2
03:05 54.7 °F 43.9 °F 30 in West 6.9 mph 9.2 mph 67% 0 in 0 W/m2
04:05 54.1 °F 44.6 °F 30 in North 3.8 mph 5.4 mph 70% 0 in 0 W/m2
04:35 54 °F 44.8 °F 30 in North 4.5 mph 6.9 mph 71% 0 in 0 W/m2
05:05 53.4 °F 45 °F 30 in WNW 3.8 mph 6 mph 73% 0 in 0 W/m2
05:35 53.4 °F 45 °F 30 in SW 4.5 mph 6 mph 73% 0 in 0 W/m2
06:05 52.9 °F 44.8 °F 30 in North 4.5 mph 6.9 mph 74% 0 in 0 W/m2
06:35 53.4 °F 45 °F 30 in NE 5.4 mph 8.3 mph 73% 0 in 0 W/m2
07:05 54.3 °F 44.4 °F 30 in NE 3.8 mph 7.6 mph 69% 0 in 0 W/m2
07:35 55.2 °F 44.4 °F 30 in North 5.4 mph 8.3 mph 67% 0 in 0 W/m2
08:05 53.4 °F 44.6 °F 30 in NW 3.8 mph 6 mph 72% 0 in 0 W/m2
08:35 51.6 °F 44.1 °F 30 in North 3.1 mph 4.5 mph 75% 0 in 0 W/m2
09:05 51.4 °F 44.4 °F 30 in North 6 mph 8.3 mph 77% 0 in 0 W/m2
09:35 51.8 °F 44.1 °F 30 in North 3.8 mph 6 mph 75% 0 in 0 W/m2
10:35 51.4 °F 43.9 °F 30 in North 3.8 mph 6 mph 75% 0 in 0 W/m2
11:05 51.4 °F 44.4 °F 30 in North 5.4 mph 6.9 mph 77% 0 in 0 W/m2
11:35 50.9 °F 43.9 °F 30 in North 6 mph 7.6 mph 77% 0 in 0 W/m2
12:05 49.3 °F 43.7 °F 30 in NE 4.5 mph 5.4 mph 81% 0 in 0 W/m2
12:35 48.2 °F 43.5 °F 30 in North 4.5 mph 6 mph 84% 0 in 0 W/m2
13:14 58.5 °F 42.8 °F 30.1 in NNW 7.6 mph 11.4 mph 56% 0 in 58 W/m2
13:19 58.6 °F 43.5 °F 30.1 in West 5.4 mph 11.4 mph 57% 0 in 59 W/m2
13:24 58.8 °F 43.2 °F 30.1 in West 7.6 mph 11.4 mph 56% 0 in 60 W/m2
13:29 59 °F 43.3 °F 30.1 in West 6 mph 11.4 mph 56% 0 in 62 W/m2
13:34 59.5 °F 43.9 °F 30.1 in WSW 7.6 mph 11.4 mph 56% 0 in 65 W/m2
13:44 59.5 °F 44.2 °F 30.1 in West 9.2 mph 10.7 mph 57% 0 in 68 W/m2
13:49 59.5 °F 44.8 °F 30.1 in WSW 4.5 mph 9.8 mph 58% 0 in 74 W/m2
13:54 60.1 °F 44.8 °F 30.1 in WSW 7.6 mph 10.7 mph 57% 0 in 103 W/m2
13:59 59.5 °F 43.9 °F 30.1 in WSW 5.4 mph 10.7 mph 56% 0 in 163 W/m2
14:04 59.9 °F 44.6 °F 30.1 in WSW 2.2 mph 10.7 mph 57% 0 in 209 W/m2
14:09 60.8 °F 45 °F 30.1 in WSW 3.8 mph 9.8 mph 56% 0 in 245 W/m2
14:19 60.4 °F 43.7 °F 30.1 in West 5.4 mph 9.2 mph 54% 0 in 243 W/m2
14:24 60.4 °F 43.7 °F 30.1 in WSW 3.8 mph 8.3 mph 54% 0 in 237 W/m2
14:29 60.4 °F 43.7 °F 30.1 in WSW 6.9 mph 8.3 mph 54% 0 in 233 W/m2
14:34 60.4 °F 44.2 °F 30.1 in SW 5.4 mph 8.3 mph 55% 0 in 229 W/m2
14:39 60.3 °F 43.5 °F 30.1 in SW 9.2 mph 12.1 mph 54% 0 in 221 W/m2
14:44 60.3 °F 44.1 °F 30.1 in WSW 5.4 mph 12.1 mph 55% 0 in 216 W/m2
14:49 60.1 °F 43.9 °F 30.1 in WSW 3.1 mph 11.4 mph 55% 0 in 209 W/m2
14:54 60.4 °F 44.2 °F 30.1 in WSW 5.4 mph 7.6 mph 55% 0 in 202 W/m2
14:59 60.6 °F 43.9 °F 30.1 in SW 5.4 mph 7.6 mph 54% 0 in 193 W/m2
15:04 60.3 °F 43.5 °F 30.1 in SW 4.5 mph 8.3 mph 54% 0 in 182 W/m2
15:09 60.3 °F 43.5 °F 30.1 in WSW 3.1 mph 8.3 mph 54% 0 in 166 W/m2
15:14 60.4 °F 43.7 °F 30.1 in WSW 3.1 mph 7.6 mph 54% 0 in 145 W/m2
15:19 60.8 °F 43.5 °F 30.1 in SW 3.8 mph 6.9 mph 53% 0 in 133 W/m2
15:24 60.6 °F 43.9 °F 30.1 in SW 3.8 mph 6 mph 54% 0 in 125 W/m2
15:29 60.8 °F 43.5 °F 30.1 in WSW 2.2 mph 6 mph 53% 0 in 117 W/m2
15:34 60.8 °F 43.5 °F 30.1 in WSW 6 mph 7.6 mph 53% 0 in 108 W/m2
15:39 60.3 °F 43.5 °F 30.1 in WSW 4.5 mph 7.6 mph 54% 0 in 99 W/m2
15:44 60.3 °F 43.5 °F 30.1 in WSW 3.8 mph 7.6 mph 54% 0 in 90 W/m2
15:49 60.3 °F 44.1 °F 30.1 in WSW 2.2 mph 6.9 mph 55% 0 in 81 W/m2
15:54 60.4 °F 44.2 °F 30.1 in WSW 1.6 mph 5.4 mph 55% 0 in 71 W/m2
15:59 60.8 °F 44.1 °F 30.1 in West 2.2 mph 4.5 mph 54% 0 in 62 W/m2
16:04 61 °F 44.2 °F 30.1 in West 2.2 mph 6 mph 54% 0 in 53 W/m2
16:09 60.6 °F 44.4 °F 30.1 in West 0.7 mph 6 mph 55% 0 in 45 W/m2
16:14 60.8 °F 44.4 °F 30.1 in West 1.6 mph 4.5 mph 55% 0 in 38 W/m2
16:19 60.8 °F 44.4 °F 30.1 in West 0.7 mph 3.1 mph 55% 0 in 32 W/m2
16:24 60.4 °F 44.8 °F 30.1 in West 0.7 mph 3.1 mph 56% 0 in 26 W/m2
16:29 60.3 °F 44.4 °F 30.1 in West 1.6 mph 3.1 mph 56% 0 in 21 W/m2
16:34 59.7 °F 44.1 °F 30.1 in WNW 1.6 mph 3.1 mph 56% 0 in 17 W/m2
16:40 58.8 °F 44.1 °F 30.1 in Calm   3.1 mph 58% 0 in 10 W/m2
16:45 58.5 °F 44.2 °F 30.1 in Calm   3.1 mph 59% 0 in 5 W/m2
16:50 57 °F 43.7 °F 30.1 in Calm   1.6 mph 61% 0 in 2 W/m2
16:55 55.4 °F 43 °F 30.2 in NW 0.7 mph 1.6 mph 63% 0 in 0 W/m2
17:00 54.3 °F 42.8 °F 30.2 in Calm   1.6 mph 65% 0 in 0 W/m2
17:05 53.2 °F 42.6 °F 30.2 in Calm   1.6 mph 67% 0 in 0 W/m2
17:10 52.5 °F 43 °F 30.1 in Calm   1.6 mph 70% 0 in 0 W/m2
17:15 51.8 °F 43.2 °F 30.2 in North 0.7 mph 1.6 mph 72% 0 in 0 W/m2
17:20 51.6 °F 44.1 °F 30.1 in North 1.6 mph 2.2 mph 75% 0 in 0 W/m2
17:26 51.1 °F 43.9 °F 30.2 in North 1.6 mph 2.2 mph 76% 0 in 0 W/m2
17:31 50.7 °F 43.9 °F 30.2 in North 0.7 mph 2.2 mph 77% 0 in 0 W/m2
17:36 50.5 °F 43.9 °F 30.2 in North 1.6 mph 3.1 mph 78% 0 in 0 W/m2
17:41 50.5 °F 44.2 °F 30.2 in North 1.6 mph 3.1 mph 79% 0 in 0 W/m2
17:46 50.2 °F 43.9 °F 30.2 in Calm   3.1 mph 79% 0 in 0 W/m2
17:51 49.8 °F 44.2 °F 30.2 in NNE 0.7 mph 2.2 mph 81% 0 in 0 W/m2
17:56 49.5 °F 44.4 °F 30.2 in Calm   2.2 mph 83% 0 in 0 W/m2
18:06 48.7 °F 44.1 °F 30.2 in North 1.6 mph 3.1 mph 84% 0 in 0 W/m2
18:11 48 °F 44.1 °F 30.2 in North 1.6 mph 3.8 mph 86% 0 in 0 W/m2
18:16 47.3 °F 43.5 °F 30.2 in NNE 1.6 mph 3.8 mph 87% 0 in 0 W/m2
18:21 46.9 °F 43.9 °F 30.2 in North 0.7 mph 3.1 mph 89% 0 in 0 W/m2
18:26 46.8 °F 44.1 °F 30.2 in North 1.6 mph 3.1 mph 90% 0 in 0 W/m2
18:31 46.4 °F 43.9 °F 30.2 in NW 2.2 mph 3.8 mph 91% 0 in 0 W/m2
18:36 45.9 °F 43.7 °F 30.2 in NW 3.1 mph 3.8 mph 92% 0 in 0 W/m2
18:41 45.7 °F 43.9 °F 30.2 in NNW 2.2 mph 3.8 mph 93% 0 in 0 W/m2
18:46 45.5 °F 43.9 °F 30.2 in North 2.2 mph 3.8 mph 94% 0 in 0 W/m2
18:51 45.3 °F 44.1 °F 30.2 in North 1.6 mph 3.8 mph 95% 0 in 0 W/m2
18:56 45.1 °F 43.9 °F 30.2 in NNW 1.6 mph 3.8 mph 95% 0 in 0 W/m2
19:01 45 °F 43.5 °F 30.2 in NNW 1.6 mph 3.8 mph 95% 0 in 0 W/m2
19:06 44.8 °F 43.7 °F 30.2 in NW 2.2 mph 3.1 mph 96% 0 in 0 W/m2
19:11 44.6 °F 43.5 °F 30.2 in NNW 2.2 mph 3.8 mph 96% 0 in 0 W/m2
19:16 44.6 °F 43.9 °F 30.2 in NNW 1.6 mph 3.8 mph 97% 0 in 0 W/m2
19:21 44.6 °F 43.9 °F 30.2 in NNW 1.6 mph 3.8 mph 97% 0 in 0 W/m2
19:26 44.4 °F 43.9 °F 30.2 in NW 3.1 mph 3.8 mph 98% 0 in 0 W/m2
19:31 44.8 °F 44.1 °F 30.2 in NW 3.8 mph 6 mph 97% 0 in 0 W/m2
19:36 44.8 °F 44.1 °F 30.2 in NW 3.1 mph 6 mph 97% 0 in 0 W/m2
19:41 44.8 °F 44.1 °F 30.2 in NNW 3.1 mph 5.4 mph 97% 0 in 0 W/m2
19:46 44.8 °F 44.1 °F 30.2 in NW 3.1 mph 5.4 mph 97% 0 in 0 W/m2
19:51 44.6 °F 43.9 °F 30.2 in NW 3.8 mph 5.4 mph 97% 0 in 0 W/m2
19:55 44.4 °F 43.9 °F 30.2 in NW 3.8 mph 5.4 mph 98% 0 in 0 W/m2
20:01 44.2 °F 43.7 °F 30.2 in NW 3.8 mph 6 mph 98% 0 in 0 W/m2
20:06 44.2 °F 43.7 °F 30.2 in NW 3.8 mph 6 mph 98% 0 in 0 W/m2
20:11 44.1 °F 43.5 °F 30.2 in NW 3.8 mph 5.4 mph 98% 0 in 0 W/m2
20:15 44.1 °F 43.5 °F 30.2 in NW 3.8 mph 6 mph 98% 0 in 0 W/m2
20:21 44.1 °F 43.5 °F 30.2 in NW 3.8 mph 6 mph 98% 0 in 0 W/m2
20:26 44.1 °F 43.5 °F 30.2 in NW 3.8 mph 6.9 mph 98% 0 in 0 W/m2
20:30 43.9 °F 43.3 °F 30.2 in NW 3.8 mph 6.9 mph 98% 0 in 0 W/m2
20:36 43.9 °F 43.3 °F 30.2 in NW 3.1 mph 6 mph 98% 0 in 0 W/m2
20:41 43.7 °F 43.2 °F 30.2 in NW 4.5 mph 6.9 mph 98% 0 in 0 W/m2
20:46 43.7 °F 43.2 °F 30.2 in NW 4.5 mph 7.6 mph 98% 0 in 0 W/m2
20:51 43.9 °F 43.3 °F 30.2 in NNW 4.5 mph 7.6 mph 98% 0 in 0 W/m2
20:56 43.9 °F 43.3 °F 30.2 in NNW 3.8 mph 7.6 mph 98% 0 in 0 W/m2
21:00 43.9 °F 43.3 °F 30.2 in NNW 4.5 mph 7.6 mph 98% 0 in 0 W/m2
21:06 43.9 °F 43.3 °F 30.2 in NNW 5.4 mph 7.6 mph 98% 0 in 0 W/m2
21:11 43.9 °F 43.3 °F 30.2 in NW 4.5 mph 7.6 mph 98% 0 in 0 W/m2
21:16 43.9 °F 43.3 °F 30.2 in NNW 5.4 mph 7.6 mph 98% 0 in 0 W/m2
21:21 43.9 °F 43.3 °F 30.2 in NNW 3.8 mph 7.6 mph 98% 0 in 0 W/m2
21:26 43.7 °F 43.2 °F 30.2 in NNW 4.5 mph 7.6 mph 98% 0 in 0 W/m2
21:31 43.5 °F 43 °F 30.2 in NNW 3.8 mph 6.9 mph 98% 0 in 0 W/m2
21:36 43.2 °F 42.6 °F 30.2 in NW 3.1 mph 6.9 mph 98% 0 in 0 W/m2
21:40 43 °F 42.4 °F 30.2 in NNW 3.8 mph 6 mph 98% 0 in 0 W/m2
21:46 43 °F 42.4 °F 30.2 in NNW 3.8 mph 5.4 mph 98% 0 in 0 W/m2
21:51 42.8 °F 42.3 °F 30.2 in NNW 3.8 mph 6 mph 98% 0 in 0 W/m2
21:56 42.8 °F 42.3 °F 30.2 in NNW 3.1 mph 6 mph 98% 0 in 0 W/m2
22:00 42.8 °F 42.3 °F 30.2 in NNW 3.1 mph 5.4 mph 98% 0 in 0 W/m2
22:06 42.6 °F 42.4 °F 30.2 in NNW 3.1 mph 5.4 mph 99% 0 in 0 W/m2
22:12 42.6 °F 42.4 °F 30.2 in NW 3.1 mph 4.5 mph 99% 0 in 0 W/m2
22:17 42.6 °F 42.4 °F 30.2 in NW 3.1 mph 6 mph 99% 0 in 0 W/m2
22:22 42.4 °F 42.3 °F 30.2 in NNW 3.1 mph 6 mph 99% 0 in 0 W/m2
22:27 42.3 °F 42.1 °F 30.2 in NW 3.1 mph 6 mph 99% 0 in 0 W/m2
22:32 42.4 °F 42.3 °F 30.2 in NW 5.4 mph 8.3 mph 99% 0 in 0 W/m2
22:37 42.6 °F 42.4 °F 30.2 in NNW 3.8 mph 9.2 mph 99% 0 in 0 W/m2
22:42 42.6 °F 42.4 °F 30.2 in NNW 5.4 mph 9.2 mph 99% 0 in 0 W/m2
22:47 42.6 °F 42.4 °F 30.2 in NNW 3.8 mph 9.2 mph 99% 0 in 0 W/m2
22:52 42.6 °F 42.4 °F 30.2 in NNW 3.8 mph 6 mph 99% 0 in 0 W/m2
22:57 42.3 °F 42.1 °F 30.2 in NNW 3.8 mph 6 mph 99% 0 in 0 W/m2
23:02 41.9 °F 41.5 °F 30.2 in NNW 3.8 mph 6.9 mph 99% 0 in 0 W/m2
23:08 41.9 °F 41.5 °F 30.2 in NNW 3.8 mph 7.6 mph 99% 0 in 0 W/m2
23:13 41.9 °F 41.5 °F 30.2 in NNW 3.1 mph 7.6 mph 99% 0 in 0 W/m2
23:18 41.7 °F 41.5 °F 30.2 in NNW 3.1 mph 5.4 mph 99% 0 in 0 W/m2
23:23 41.7 °F 41.5 °F 30.2 in North 1.6 mph 4.5 mph 99% 0 in 0 W/m2
23:28 41.7 °F 41.5 °F 30.2 in North 3.1 mph 4.5 mph 99% 0 in 0 W/m2
23:33 41.9 °F 41.5 °F 30.2 in NNW 3.1 mph 5.4 mph 99% 0 in 0 W/m2
23:38 41.9 °F 41.5 °F 30.2 in NNW 3.1 mph 6 mph 99% 0 in 0 W/m2
23:43 42.1 °F 41.7 °F 30.2 in NNW 3.8 mph 6 mph 99% 0 in 0 W/m2
23:48 42.1 °F 41.7 °F 30.2 in NNW 3.8 mph 6 mph 99% 0 in 0 W/m2
23:53 42.3 °F 42.1 °F 30.2 in North 3.1 mph 7.6 mph 99% 0 in 0 W/m2
Northern Hawkes Bay. New Zealand Historic Data
Compliments of Weather Underground - 2 mb